sensor_id;sensor_type;location;lat;lon;timestamp;temperature;humidity
44305;DHT22;30019;50.576;8.568;2022-09-16T00:01:00;12.30;99.90
44305;DHT22;30019;50.576;8.568;2022-09-16T00:03:26;12.30;99.90
44305;DHT22;30019;50.576;8.568;2022-09-16T00:05:52;12.20;99.90
44305;DHT22;30019;50.576;8.568;2022-09-16T00:08:18;12.30;99.90
44305;DHT22;30019;50.576;8.568;2022-09-16T00:10:45;12.20;99.90
44305;DHT22;30019;50.576;8.568;2022-09-16T00:13:11;12.10;99.90
44305;DHT22;30019;50.576;8.568;2022-09-16T00:15:41;12.00;99.90
44305;DHT22;30019;50.576;8.568;2022-09-16T00:18:07;11.90;99.90
44305;DHT22;30019;50.576;8.568;2022-09-16T00:20:32;11.90;99.90
44305;DHT22;30019;50.576;8.568;2022-09-16T00:22:58;11.80;99.90
44305;DHT22;30019;50.576;8.568;2022-09-16T00:25:23;11.80;99.90
44305;DHT22;30019;50.576;8.568;2022-09-16T00:27:49;11.80;99.90
44305;DHT22;30019;50.576;8.568;2022-09-16T00:30:15;11.90;99.90
44305;DHT22;30019;50.576;8.568;2022-09-16T00:32:40;11.80;99.90
44305;DHT22;30019;50.576;8.568;2022-09-16T00:35:06;11.80;99.90
44305;DHT22;30019;50.576;8.568;2022-09-16T00:37:32;11.90;99.90
44305;DHT22;30019;50.576;8.568;2022-09-16T00:39:58;11.90;99.90
44305;DHT22;30019;50.576;8.568;2022-09-16T00:42:23;11.90;99.90
44305;DHT22;30019;50.576;8.568;2022-09-16T00:45:02;11.90;99.90
44305;DHT22;30019;50.576;8.568;2022-09-16T00:47:47;11.90;99.90
44305;DHT22;30019;50.576;8.568;2022-09-16T00:51:02;11.90;99.90
44305;DHT22;30019;50.576;8.568;2022-09-16T00:53:13;11.90;99.90
44305;DHT22;30019;50.576;8.568;2022-09-16T00:55:39;11.90;99.90
44305;DHT22;30019;50.576;8.568;2022-09-16T01:01:11;11.80;99.90
44305;DHT22;30019;50.576;8.568;2022-09-16T01:03:44;11.80;99.90
44305;DHT22;30019;50.576;8.568;2022-09-16T01:06:10;11.70;99.90
44305;DHT22;30019;50.576;8.568;2022-09-16T01:08:39;11.70;99.90
44305;DHT22;30019;50.576;8.568;2022-09-16T01:11:06;11.70;99.90
44305;DHT22;30019;50.576;8.568;2022-09-16T01:13:32;11.70;99.90
44305;DHT22;30019;50.576;8.568;2022-09-16T01:21:35;11.60;99.90
44305;DHT22;30019;50.576;8.568;2022-09-16T01:26:44;11.60;99.90
44305;DHT22;30019;50.576;8.568;2022-09-16T01:29:32;11.60;99.90
44305;DHT22;30019;50.576;8.568;2022-09-16T01:32:05;11.60;99.90
44305;DHT22;30019;50.576;8.568;2022-09-16T01:37:01;11.60;99.90
44305;DHT22;30019;50.576;8.568;2022-09-16T01:44:54;11.50;99.90
44305;DHT22;30019;50.576;8.568;2022-09-16T01:47:34;11.40;99.90
44305;DHT22;30019;50.576;8.568;2022-09-16T01:55:11;11.30;99.90
44305;DHT22;30019;50.576;8.568;2022-09-16T01:58:00;11.30;99.90
44305;DHT22;30019;50.576;8.568;2022-09-16T02:00:27;11.30;99.90
44305;DHT22;30019;50.576;8.568;2022-09-16T02:03:15;11.30;99.90
44305;DHT22;30019;50.576;8.568;2022-09-16T02:05:50;11.20;99.90
44305;DHT22;30019;50.576;8.568;2022-09-16T02:11:05;11.10;99.90
44305;DHT22;30019;50.576;8.568;2022-09-16T02:13:41;11.10;99.90
44305;DHT22;30019;50.576;8.568;2022-09-16T02:16:12;11.10;99.90
44305;DHT22;30019;50.576;8.568;2022-09-16T02:18:41;11.00;99.90
44305;DHT22;30019;50.576;8.568;2022-09-16T02:21:14;11.10;99.90
44305;DHT22;30019;50.576;8.568;2022-09-16T02:23:46;11.00;99.90
44305;DHT22;30019;50.576;8.568;2022-09-16T02:26:15;10.90;99.90
44305;DHT22;30019;50.576;8.568;2022-09-16T02:28:46;10.90;99.90
44305;DHT22;30019;50.576;8.568;2022-09-16T02:31:12;10.80;99.90
44305;DHT22;30019;50.576;8.568;2022-09-16T02:33:44;10.80;99.90
44305;DHT22;30019;50.576;8.568;2022-09-16T02:36:16;10.70;99.90
44305;DHT22;30019;50.576;8.568;2022-09-16T02:38:47;10.80;99.90
44305;DHT22;30019;50.576;8.568;2022-09-16T02:41:13;10.80;99.90
44305;DHT22;30019;50.576;8.568;2022-09-16T02:43:43;10.70;99.90
44305;DHT22;30019;50.576;8.568;2022-09-16T02:54:47;10.70;99.90
44305;DHT22;30019;50.576;8.568;2022-09-16T02:57:14;10.70;99.90
44305;DHT22;30019;50.576;8.568;2022-09-16T02:59:40;10.70;99.90
44305;DHT22;30019;50.576;8.568;2022-09-16T03:02:06;10.70;99.90
44305;DHT22;30019;50.576;8.568;2022-09-16T03:04:33;10.60;99.90
44305;DHT22;30019;50.576;8.568;2022-09-16T03:06:59;10.60;99.90
44305;DHT22;30019;50.576;8.568;2022-09-16T03:09:25;10.60;99.90
44305;DHT22;30019;50.576;8.568;2022-09-16T03:20:19;10.60;99.90
44305;DHT22;30019;50.576;8.568;2022-09-16T03:25:56;10.50;99.90
44305;DHT22;30019;50.576;8.568;2022-09-16T03:28:58;10.50;99.90
44305;DHT22;30019;50.576;8.568;2022-09-16T03:31:31;10.50;99.90
44305;DHT22;30019;50.576;8.568;2022-09-16T03:34:11;10.50;99.90
44305;DHT22;30019;50.576;8.568;2022-09-16T03:36:44;10.40;99.90
44305;DHT22;30019;50.576;8.568;2022-09-16T03:39:12;10.40;99.90
44305;DHT22;30019;50.576;8.568;2022-09-16T03:41:39;10.40;99.90
44305;DHT22;30019;50.576;8.568;2022-09-16T03:44:05;10.50;99.90
44305;DHT22;30019;50.576;8.568;2022-09-16T03:46:30;10.50;99.90
44305;DHT22;30019;50.576;8.568;2022-09-16T03:48:57;10.50;99.90
44305;DHT22;30019;50.576;8.568;2022-09-16T03:51:23;10.50;99.90
44305;DHT22;30019;50.576;8.568;2022-09-16T03:53:52;10.60;99.90
44305;DHT22;30019;50.576;8.568;2022-09-16T03:56:18;10.60;99.90
44305;DHT22;30019;50.576;8.568;2022-09-16T03:58:43;10.60;99.90
44305;DHT22;30019;50.576;8.568;2022-09-16T04:01:09;10.60;99.90
44305;DHT22;30019;50.576;8.568;2022-09-16T04:03:34;10.60;99.90
44305;DHT22;30019;50.576;8.568;2022-09-16T04:06:03;10.60;99.90
44305;DHT22;30019;50.576;8.568;2022-09-16T04:08:29;10.70;99.90
44305;DHT22;30019;50.576;8.568;2022-09-16T04:10:59;10.70;99.90
44305;DHT22;30019;50.576;8.568;2022-09-16T04:13:25;10.70;99.90
44305;DHT22;30019;50.576;8.568;2022-09-16T04:15:53;10.70;99.90
44305;DHT22;30019;50.576;8.568;2022-09-16T04:18:18;10.70;99.90
44305;DHT22;30019;50.576;8.568;2022-09-16T04:20:44;10.60;99.90
44305;DHT22;30019;50.576;8.568;2022-09-16T04:23:09;10.60;99.90
44305;DHT22;30019;50.576;8.568;2022-09-16T04:25:35;10.50;99.90
44305;DHT22;30019;50.576;8.568;2022-09-16T04:28:01;10.40;99.90
44305;DHT22;30019;50.576;8.568;2022-09-16T04:30:27;10.40;99.90
44305;DHT22;30019;50.576;8.568;2022-09-16T04:32:53;10.30;99.90
44305;DHT22;30019;50.576;8.568;2022-09-16T04:35:19;10.30;99.90
44305;DHT22;30019;50.576;8.568;2022-09-16T04:37:45;10.30;99.90
44305;DHT22;30019;50.576;8.568;2022-09-16T04:40:11;10.30;99.90
44305;DHT22;30019;50.576;8.568;2022-09-16T04:42:36;10.30;99.90
44305;DHT22;30019;50.576;8.568;2022-09-16T04:45:03;10.20;99.90
44305;DHT22;30019;50.576;8.568;2022-09-16T04:47:29;10.20;99.90
44305;DHT22;30019;50.576;8.568;2022-09-16T04:49:54;10.10;99.90
44305;DHT22;30019;50.576;8.568;2022-09-16T04:52:20;10.10;99.90
44305;DHT22;30019;50.576;8.568;2022-09-16T04:54:45;10.00;99.90
44305;DHT22;30019;50.576;8.568;2022-09-16T04:57:11;10.10;99.90
44305;DHT22;30019;50.576;8.568;2022-09-16T04:59:37;10.00;99.90
44305;DHT22;30019;50.576;8.568;2022-09-16T05:02:02;10.00;99.90
44305;DHT22;30019;50.576;8.568;2022-09-16T05:04:28;10.00;99.90
44305;DHT22;30019;50.576;8.568;2022-09-16T05:06:53;9.90;99.90
44305;DHT22;30019;50.576;8.568;2022-09-16T05:09:19;9.90;99.90
44305;DHT22;30019;50.576;8.568;2022-09-16T05:11:47;9.80;99.90
44305;DHT22;30019;50.576;8.568;2022-09-16T05:14:15;9.80;99.90
44305;DHT22;30019;50.576;8.568;2022-09-16T05:16:41;9.80;99.90
44305;DHT22;30019;50.576;8.568;2022-09-16T05:19:07;9.90;99.90
44305;DHT22;30019;50.576;8.568;2022-09-16T05:21:36;9.90;99.90
44305;DHT22;30019;50.576;8.568;2022-09-16T05:24:04;9.90;99.90
44305;DHT22;30019;50.576;8.568;2022-09-16T05:26:33;9.90;99.90
44305;DHT22;30019;50.576;8.568;2022-09-16T05:29:05;9.90;99.90
44305;DHT22;30019;50.576;8.568;2022-09-16T05:31:33;10.00;99.90
44305;DHT22;30019;50.576;8.568;2022-09-16T05:34:01;10.10;99.90
44305;DHT22;30019;50.576;8.568;2022-09-16T05:36:30;10.20;99.90
44305;DHT22;30019;50.576;8.568;2022-09-16T05:38:56;10.40;99.90
44305;DHT22;30019;50.576;8.568;2022-09-16T05:41:22;10.60;99.90
44305;DHT22;30019;50.576;8.568;2022-09-16T05:43:48;10.70;99.90
44305;DHT22;30019;50.576;8.568;2022-09-16T05:46:18;10.80;99.90
44305;DHT22;30019;50.576;8.568;2022-09-16T05:48:44;10.90;99.90
44305;DHT22;30019;50.576;8.568;2022-09-16T05:51:13;11.00;99.90
44305;DHT22;30019;50.576;8.568;2022-09-16T05:53:39;11.00;99.90
44305;DHT22;30019;50.576;8.568;2022-09-16T05:56:16;11.00;99.90
44305;DHT22;30019;50.576;8.568;2022-09-16T05:58:42;11.10;99.90
44305;DHT22;30019;50.576;8.568;2022-09-16T06:01:11;11.10;99.90
44305;DHT22;30019;50.576;8.568;2022-09-16T06:03:39;11.10;99.90
44305;DHT22;30019;50.576;8.568;2022-09-16T06:06:11;11.10;99.90
44305;DHT22;30019;50.576;8.568;2022-09-16T06:08:37;11.10;99.90
44305;DHT22;30019;50.576;8.568;2022-09-16T06:11:05;11.10;99.90
44305;DHT22;30019;50.576;8.568;2022-09-16T06:13:31;11.10;99.90
44305;DHT22;30019;50.576;8.568;2022-09-16T06:15:57;11.10;99.90
44305;DHT22;30019;50.576;8.568;2022-09-16T06:18:24;11.10;99.90
44305;DHT22;30019;50.576;8.568;2022-09-16T06:20:50;11.10;99.90
44305;DHT22;30019;50.576;8.568;2022-09-16T06:23:16;11.20;99.90
44305;DHT22;30019;50.576;8.568;2022-09-16T06:25:42;11.30;99.90
44305;DHT22;30019;50.576;8.568;2022-09-16T06:28:08;11.40;99.90
44305;DHT22;30019;50.576;8.568;2022-09-16T06:30:36;11.50;99.90
44305;DHT22;30019;50.576;8.568;2022-09-16T06:33:02;11.60;99.90
44305;DHT22;30019;50.576;8.568;2022-09-16T06:35:27;11.70;99.90
44305;DHT22;30019;50.576;8.568;2022-09-16T06:37:53;11.70;99.90
44305;DHT22;30019;50.576;8.568;2022-09-16T06:40:19;11.80;99.90
44305;DHT22;30019;50.576;8.568;2022-09-16T06:42:44;11.90;99.90
44305;DHT22;30019;50.576;8.568;2022-09-16T06:45:10;11.90;99.90
44305;DHT22;30019;50.576;8.568;2022-09-16T06:47:36;12.00;99.90
44305;DHT22;30019;50.576;8.568;2022-09-16T06:50:03;11.80;99.90
44305;DHT22;30019;50.576;8.568;2022-09-16T06:52:29;11.80;99.90
44305;DHT22;30019;50.576;8.568;2022-09-16T06:54:55;11.80;99.90
44305;DHT22;30019;50.576;8.568;2022-09-16T06:57:21;11.80;99.90
44305;DHT22;30019;50.576;8.568;2022-09-16T06:59:50;11.80;99.90
44305;DHT22;30019;50.576;8.568;2022-09-16T07:02:17;11.90;99.90
44305;DHT22;30019;50.576;8.568;2022-09-16T07:04:43;12.10;99.90
44305;DHT22;30019;50.576;8.568;2022-09-16T07:07:08;12.20;99.90
44305;DHT22;30019;50.576;8.568;2022-09-16T07:09:34;12.50;99.90
44305;DHT22;30019;50.576;8.568;2022-09-16T07:12:00;12.60;99.90
44305;DHT22;30019;50.576;8.568;2022-09-16T07:14:28;12.60;99.90
44305;DHT22;30019;50.576;8.568;2022-09-16T07:16:53;12.60;99.90
44305;DHT22;30019;50.576;8.568;2022-09-16T07:19:19;13.20;99.90
44305;DHT22;30019;50.576;8.568;2022-09-16T07:21:45;13.60;99.90
44305;DHT22;30019;50.576;8.568;2022-09-16T07:24:12;13.60;99.90
44305;DHT22;30019;50.576;8.568;2022-09-16T07:26:39;13.50;99.90
44305;DHT22;30019;50.576;8.568;2022-09-16T07:29:06;13.30;99.90
44305;DHT22;30019;50.576;8.568;2022-09-16T07:31:34;13.10;99.90
44305;DHT22;30019;50.576;8.568;2022-09-16T07:34:00;13.30;99.90
44305;DHT22;30019;50.576;8.568;2022-09-16T07:36:28;13.40;99.90
44305;DHT22;30019;50.576;8.568;2022-09-16T07:38:55;13.50;99.90
44305;DHT22;30019;50.576;8.568;2022-09-16T07:41:27;13.50;99.90
44305;DHT22;30019;50.576;8.568;2022-09-16T07:43:54;13.70;99.90
44305;DHT22;30019;50.576;8.568;2022-09-16T07:46:20;13.80;99.90
44305;DHT22;30019;50.576;8.568;2022-09-16T07:48:47;13.90;99.90
44305;DHT22;30019;50.576;8.568;2022-09-16T07:51:18;13.90;99.90
44305;DHT22;30019;50.576;8.568;2022-09-16T07:53:45;13.80;99.90
44305;DHT22;30019;50.576;8.568;2022-09-16T07:56:16;13.60;99.90
44305;DHT22;30019;50.576;8.568;2022-09-16T07:58:42;13.40;99.90
44305;DHT22;30019;50.576;8.568;2022-09-16T08:01:09;13.10;99.90
44305;DHT22;30019;50.576;8.568;2022-09-16T08:03:36;12.80;99.90
44305;DHT22;30019;50.576;8.568;2022-09-16T08:06:05;12.70;99.90
44305;DHT22;30019;50.576;8.568;2022-09-16T08:08:32;12.70;99.90
44305;DHT22;30019;50.576;8.568;2022-09-16T08:10:58;12.70;99.90
44305;DHT22;30019;50.576;8.568;2022-09-16T08:13:25;12.80;99.90
44305;DHT22;30019;50.576;8.568;2022-09-16T08:15:52;13.00;99.90
44305;DHT22;30019;50.576;8.568;2022-09-16T08:18:18;13.30;99.90
44305;DHT22;30019;50.576;8.568;2022-09-16T08:20:43;13.50;99.90
44305;DHT22;30019;50.576;8.568;2022-09-16T08:23:09;13.70;99.90
44305;DHT22;30019;50.576;8.568;2022-09-16T08:25:35;14.00;99.90
44305;DHT22;30019;50.576;8.568;2022-09-16T08:28:01;14.00;99.90
44305;DHT22;30019;50.576;8.568;2022-09-16T08:30:27;14.00;99.90
44305;DHT22;30019;50.576;8.568;2022-09-16T08:32:57;14.00;99.90
44305;DHT22;30019;50.576;8.568;2022-09-16T08:35:23;13.90;99.90
44305;DHT22;30019;50.576;8.568;2022-09-16T08:37:50;13.80;99.90
44305;DHT22;30019;50.576;8.568;2022-09-16T08:40:18;13.70;99.90
44305;DHT22;30019;50.576;8.568;2022-09-16T08:51:06;14.30;99.90
44305;DHT22;30019;50.576;8.568;2022-09-16T08:54:01;14.40;99.90
44305;DHT22;30019;50.576;8.568;2022-09-16T08:56:28;14.40;99.90
44305;DHT22;30019;50.576;8.568;2022-09-16T08:58:57;14.40;99.90
44305;DHT22;30019;50.576;8.568;2022-09-16T09:01:33;14.50;99.90
44305;DHT22;30019;50.576;8.568;2022-09-16T09:04:01;14.50;99.90
44305;DHT22;30019;50.576;8.568;2022-09-16T09:06:53;14.60;99.90
44305;DHT22;30019;50.576;8.568;2022-09-16T09:12:39;14.30;99.90
44305;DHT22;30019;50.576;8.568;2022-09-16T09:18:25;14.20;99.90
44305;DHT22;30019;50.576;8.568;2022-09-16T09:21:22;14.30;99.90
44305;DHT22;30019;50.576;8.568;2022-09-16T09:24:15;14.30;99.90
44305;DHT22;30019;50.576;8.568;2022-09-16T09:26:51;14.50;99.90
44305;DHT22;30019;50.576;8.568;2022-09-16T09:29:34;14.50;99.90
44305;DHT22;30019;50.576;8.568;2022-09-16T09:34:58;14.40;99.90
44305;DHT22;30019;50.576;8.568;2022-09-16T09:42:50;15.20;99.90
44305;DHT22;30019;50.576;8.568;2022-09-16T09:45:26;15.20;99.90
44305;DHT22;30019;50.576;8.568;2022-09-16T09:48:14;15.10;99.90
44305;DHT22;30019;50.576;8.568;2022-09-16T09:50:47;15.10;99.90
44305;DHT22;30019;50.576;8.568;2022-09-16T09:53:16;15.20;99.90
44305;DHT22;30019;50.576;8.568;2022-09-16T09:55:42;15.40;99.90
44305;DHT22;30019;50.576;8.568;2022-09-16T10:00:39;15.50;99.90
44305;DHT22;30019;50.576;8.568;2022-09-16T10:03:10;15.30;99.90
44305;DHT22;30019;50.576;8.568;2022-09-16T10:05:36;15.40;99.90
44305;DHT22;30019;50.576;8.568;2022-09-16T10:10:53;15.40;99.90
44305;DHT22;30019;50.576;8.568;2022-09-16T10:13:21;15.50;99.90
44305;DHT22;30019;50.576;8.568;2022-09-16T10:15:48;15.70;99.90
44305;DHT22;30019;50.576;8.568;2022-09-16T10:18:26;16.10;99.90
44305;DHT22;30019;50.576;8.568;2022-09-16T10:21:11;16.30;99.90
44305;DHT22;30019;50.576;8.568;2022-09-16T10:23:37;15.70;99.90
44305;DHT22;30019;50.576;8.568;2022-09-16T10:26:19;15.30;99.90
44305;DHT22;30019;50.576;8.568;2022-09-16T10:31:33;16.20;99.90
44305;DHT22;30019;50.576;8.568;2022-09-16T10:33:59;17.10;99.90
44305;DHT22;30019;50.576;8.568;2022-09-16T10:36:31;17.60;99.90
44305;DHT22;30019;50.576;8.568;2022-09-16T10:38:59;18.20;99.90
44305;DHT22;30019;50.576;8.568;2022-09-16T10:41:32;19.10;99.90
44305;DHT22;30019;50.576;8.568;2022-09-16T10:44:01;18.70;99.90
44305;DHT22;30019;50.576;8.568;2022-09-16T10:46:28;18.20;99.90
44305;DHT22;30019;50.576;8.568;2022-09-16T10:49:00;17.90;99.90
44305;DHT22;30019;50.576;8.568;2022-09-16T10:51:32;17.30;99.90
44305;DHT22;30019;50.576;8.568;2022-09-16T10:54:00;16.40;99.90
44305;DHT22;30019;50.576;8.568;2022-09-16T10:56:29;16.30;99.90
44305;DHT22;30019;50.576;8.568;2022-09-16T10:59:09;15.80;99.90
44305;DHT22;30019;50.576;8.568;2022-09-16T11:02:01;15.50;99.90
44305;DHT22;30019;50.576;8.568;2022-09-16T11:07:46;17.00;99.90
44305;DHT22;30019;50.576;8.568;2022-09-16T11:10:23;17.80;99.90
44305;DHT22;30019;50.576;8.568;2022-09-16T11:18:55;18.90;99.90
44305;DHT22;30019;50.576;8.568;2022-09-16T11:24:21;18.70;99.90
44305;DHT22;30019;50.576;8.568;2022-09-16T11:27:02;19.10;99.90
44305;DHT22;30019;50.576;8.568;2022-09-16T11:35:28;16.60;99.90
44305;DHT22;30019;50.576;8.568;2022-09-16T11:58:00;17.60;99.90
44305;DHT22;30019;50.576;8.568;2022-09-16T12:00:30;18.20;99.50
44305;DHT22;30019;50.576;8.568;2022-09-16T12:03:10;18.60;98.70
44305;DHT22;30019;50.576;8.568;2022-09-16T12:08:10;19.40;99.10
44305;DHT22;30019;50.576;8.568;2022-09-16T12:10:50;19.30;98.70
44305;DHT22;30019;50.576;8.568;2022-09-16T12:13:24;19.10;98.80
44305;DHT22;30019;50.576;8.568;2022-09-16T12:15:55;18.70;99.20
44305;DHT22;30019;50.576;8.568;2022-09-16T12:21:48;17.00;99.90
44305;DHT22;30019;50.576;8.568;2022-09-16T12:24:02;16.50;99.90
44305;DHT22;30019;50.576;8.568;2022-09-16T12:26:36;16.20;99.90
44305;DHT22;30019;50.576;8.568;2022-09-16T12:29:10;15.90;99.90
44305;DHT22;30019;50.576;8.568;2022-09-16T12:31:49;15.70;99.90
44305;DHT22;30019;50.576;8.568;2022-09-16T12:34:51;15.90;99.90
44305;DHT22;30019;50.576;8.568;2022-09-16T12:37:41;16.30;99.90
44305;DHT22;30019;50.576;8.568;2022-09-16T12:40:17;16.60;99.90
44305;DHT22;30019;50.576;8.568;2022-09-16T12:46:03;16.30;99.90
44305;DHT22;30019;50.576;8.568;2022-09-16T12:48:37;16.10;99.90
44305;DHT22;30019;50.576;8.568;2022-09-16T13:01:34;16.60;99.90
44305;DHT22;30019;50.576;8.568;2022-09-16T13:04:23;16.90;99.90
44305;DHT22;30019;50.576;8.568;2022-09-16T13:06:53;17.60;99.90
44305;DHT22;30019;50.576;8.568;2022-09-16T13:09:29;18.20;97.30
44305;DHT22;30019;50.576;8.568;2022-09-16T13:12:26;18.30;97.10
44305;DHT22;30019;50.576;8.568;2022-09-16T13:14:55;17.80;96.30
44305;DHT22;30019;50.576;8.568;2022-09-16T13:17:40;17.70;95.80
44305;DHT22;30019;50.576;8.568;2022-09-16T13:28:40;16.70;97.20
44305;DHT22;30019;50.576;8.568;2022-09-16T13:34:32;16.90;97.90
44305;DHT22;30019;50.576;8.568;2022-09-16T13:36:33;16.80;97.40
44305;DHT22;30019;50.576;8.568;2022-09-16T13:38:59;17.20;97.50
44305;DHT22;30019;50.576;8.568;2022-09-16T13:41:37;17.60;97.20
44305;DHT22;30019;50.576;8.568;2022-09-16T13:47:30;18.20;96.40
44305;DHT22;30019;50.576;8.568;2022-09-16T13:50:05;18.10;94.70
44305;DHT22;30019;50.576;8.568;2022-09-16T13:52:34;17.70;93.90
44305;DHT22;30019;50.576;8.568;2022-09-16T13:55:07;16.80;94.00
44305;DHT22;30019;50.576;8.568;2022-09-16T14:00:39;16.00;94.60
44305;DHT22;30019;50.576;8.568;2022-09-16T14:12:03;14.80;99.90
44305;DHT22;30019;50.576;8.568;2022-09-16T14:14:33;14.50;99.90
44305;DHT22;30019;50.576;8.568;2022-09-16T14:17:02;14.10;99.90
44305;DHT22;30019;50.576;8.568;2022-09-16T14:19:33;13.80;99.90
44305;DHT22;30019;50.576;8.568;2022-09-16T14:22:12;13.70;99.90
44305;DHT22;30019;50.576;8.568;2022-09-16T14:24:39;13.70;99.90
44305;DHT22;30019;50.576;8.568;2022-09-16T14:27:29;13.80;99.90
44305;DHT22;30019;50.576;8.568;2022-09-16T14:30:05;14.10;99.90
44305;DHT22;30019;50.576;8.568;2022-09-16T14:32:32;14.30;99.90
44305;DHT22;30019;50.576;8.568;2022-09-16T14:35:11;14.40;99.90
44305;DHT22;30019;50.576;8.568;2022-09-16T14:37:39;14.30;99.90
44305;DHT22;30019;50.576;8.568;2022-09-16T14:40:14;14.30;99.90
44305;DHT22;30019;50.576;8.568;2022-09-16T14:43:05;14.30;99.90
44305;DHT22;30019;50.576;8.568;2022-09-16T14:45:33;14.20;99.90
44305;DHT22;30019;50.576;8.568;2022-09-16T14:48:01;14.20;99.90
44305;DHT22;30019;50.576;8.568;2022-09-16T14:50:32;14.10;99.90
44305;DHT22;30019;50.576;8.568;2022-09-16T14:53:03;14.10;99.90
44305;DHT22;30019;50.576;8.568;2022-09-16T14:55:31;14.20;99.90
44305;DHT22;30019;50.576;8.568;2022-09-16T14:57:59;14.20;99.90
44305;DHT22;30019;50.576;8.568;2022-09-16T15:00:32;14.40;99.90
44305;DHT22;30019;50.576;8.568;2022-09-16T15:03:11;14.80;99.90
44305;DHT22;30019;50.576;8.568;2022-09-16T15:05:40;14.80;99.90
44305;DHT22;30019;50.576;8.568;2022-09-16T15:10:47;14.90;99.90
44305;DHT22;30019;50.576;8.568;2022-09-16T15:13:15;14.70;99.90
44305;DHT22;30019;50.576;8.568;2022-09-16T15:15:56;14.70;99.90
44305;DHT22;30019;50.576;8.568;2022-09-16T15:18:27;14.50;99.90
44305;DHT22;30019;50.576;8.568;2022-09-16T15:23:32;14.40;99.90
44305;DHT22;30019;50.576;8.568;2022-09-16T15:26:14;14.40;99.90
44305;DHT22;30019;50.576;8.568;2022-09-16T15:29:01;14.50;99.90
44305;DHT22;30019;50.576;8.568;2022-09-16T15:31:37;14.70;99.90
44305;DHT22;30019;50.576;8.568;2022-09-16T15:34:22;15.00;99.90
44305;DHT22;30019;50.576;8.568;2022-09-16T15:36:49;14.90;99.90
44305;DHT22;30019;50.576;8.568;2022-09-16T15:42:16;14.70;99.90
44305;DHT22;30019;50.576;8.568;2022-09-16T15:44:59;14.50;99.90
44305;DHT22;30019;50.576;8.568;2022-09-16T15:47:31;14.40;99.90
44305;DHT22;30019;50.576;8.568;2022-09-16T15:50:07;14.50;99.90
44305;DHT22;30019;50.576;8.568;2022-09-16T15:53:03;14.50;99.90
44305;DHT22;30019;50.576;8.568;2022-09-16T15:55:59;14.30;99.90
44305;DHT22;30019;50.576;8.568;2022-09-16T15:58:41;14.30;99.90
44305;DHT22;30019;50.576;8.568;2022-09-16T16:06:09;14.10;99.90
44305;DHT22;30019;50.576;8.568;2022-09-16T16:08:47;14.10;99.90
44305;DHT22;30019;50.576;8.568;2022-09-16T16:11:18;13.80;99.90
44305;DHT22;30019;50.576;8.568;2022-09-16T16:13:44;13.70;99.90
44305;DHT22;30019;50.576;8.568;2022-09-16T16:16:12;13.50;99.90
44305;DHT22;30019;50.576;8.568;2022-09-16T16:18:39;13.40;99.90
44305;DHT22;30019;50.576;8.568;2022-09-16T16:21:10;13.30;99.90
44305;DHT22;30019;50.576;8.568;2022-09-16T16:23:36;13.30;99.90
44305;DHT22;30019;50.576;8.568;2022-09-16T16:26:06;13.20;99.90
44305;DHT22;30019;50.576;8.568;2022-09-16T16:28:33;13.10;99.90
44305;DHT22;30019;50.576;8.568;2022-09-16T16:31:09;13.10;99.90
44305;DHT22;30019;50.576;8.568;2022-09-16T16:33:35;13.10;99.90
44305;DHT22;30019;50.576;8.568;2022-09-16T16:36:01;13.10;99.90
44305;DHT22;30019;50.576;8.568;2022-09-16T16:38:28;13.10;99.90
44305;DHT22;30019;50.576;8.568;2022-09-16T16:40:53;13.10;99.90
44305;DHT22;30019;50.576;8.568;2022-09-16T16:43:20;13.00;99.90
44305;DHT22;30019;50.576;8.568;2022-09-16T16:45:53;13.00;99.90
44305;DHT22;30019;50.576;8.568;2022-09-16T16:48:18;12.90;99.90
44305;DHT22;30019;50.576;8.568;2022-09-16T16:50:53;12.90;99.90
44305;DHT22;30019;50.576;8.568;2022-09-16T16:53:19;12.90;99.90
44305;DHT22;30019;50.576;8.568;2022-09-16T16:55:45;12.90;99.90
44305;DHT22;30019;50.576;8.568;2022-09-16T16:58:10;12.80;99.90
44305;DHT22;30019;50.576;8.568;2022-09-16T17:00:36;12.70;99.90
44305;DHT22;30019;50.576;8.568;2022-09-16T17:03:02;12.60;99.90
44305;DHT22;30019;50.576;8.568;2022-09-16T17:05:27;12.60;99.90
44305;DHT22;30019;50.576;8.568;2022-09-16T17:07:53;12.50;99.90
44305;DHT22;30019;50.576;8.568;2022-09-16T17:10:19;12.40;99.90
44305;DHT22;30019;50.576;8.568;2022-09-16T17:12:44;12.30;99.90
44305;DHT22;30019;50.576;8.568;2022-09-16T17:15:10;12.40;99.90
44305;DHT22;30019;50.576;8.568;2022-09-16T17:17:36;12.30;99.90
44305;DHT22;30019;50.576;8.568;2022-09-16T17:20:01;12.30;99.90
44305;DHT22;30019;50.576;8.568;2022-09-16T17:22:27;12.20;99.90
44305;DHT22;30019;50.576;8.568;2022-09-16T17:24:53;12.20;99.90
44305;DHT22;30019;50.576;8.568;2022-09-16T17:27:18;12.10;99.90
44305;DHT22;30019;50.576;8.568;2022-09-16T17:29:45;12.10;99.90
44305;DHT22;30019;50.576;8.568;2022-09-16T17:32:10;12.00;99.90
44305;DHT22;30019;50.576;8.568;2022-09-16T17:34:36;11.90;99.90
44305;DHT22;30019;50.576;8.568;2022-09-16T17:37:02;11.80;99.90
44305;DHT22;30019;50.576;8.568;2022-09-16T17:39:28;11.80;99.90
44305;DHT22;30019;50.576;8.568;2022-09-16T17:41:54;11.80;99.90
44305;DHT22;30019;50.576;8.568;2022-09-16T17:44:21;11.80;99.90
44305;DHT22;30019;50.576;8.568;2022-09-16T17:46:46;11.70;99.90
44305;DHT22;30019;50.576;8.568;2022-09-16T17:49:22;11.60;99.90
44305;DHT22;30019;50.576;8.568;2022-09-16T17:51:50;11.50;99.90
44305;DHT22;30019;50.576;8.568;2022-09-16T17:54:16;11.50;99.90
44305;DHT22;30019;50.576;8.568;2022-09-16T17:56:42;11.50;99.90
44305;DHT22;30019;50.576;8.568;2022-09-16T17:59:09;11.50;99.90
44305;DHT22;30019;50.576;8.568;2022-09-16T18:01:35;11.40;99.90
44305;DHT22;30019;50.576;8.568;2022-09-16T18:04:01;11.30;99.90
44305;DHT22;30019;50.576;8.568;2022-09-16T18:06:32;11.30;99.90
44305;DHT22;30019;50.576;8.568;2022-09-16T18:09:04;11.30;99.90
44305;DHT22;30019;50.576;8.568;2022-09-16T18:11:31;11.20;99.90
44305;DHT22;30019;50.576;8.568;2022-09-16T18:13:59;11.10;99.90
44305;DHT22;30019;50.576;8.568;2022-09-16T18:16:26;11.10;99.90
44305;DHT22;30019;50.576;8.568;2022-09-16T18:18:54;11.00;99.90
44305;DHT22;30019;50.576;8.568;2022-09-16T18:21:21;11.00;99.90
44305;DHT22;30019;50.576;8.568;2022-09-16T18:23:52;11.00;99.90
44305;DHT22;30019;50.576;8.568;2022-09-16T18:26:18;10.90;99.90
44305;DHT22;30019;50.576;8.568;2022-09-16T18:28:45;10.90;99.90
44305;DHT22;30019;50.576;8.568;2022-09-16T18:31:13;10.90;99.90
44305;DHT22;30019;50.576;8.568;2022-09-16T18:33:39;10.90;99.90
44305;DHT22;30019;50.576;8.568;2022-09-16T18:36:10;10.80;99.90
44305;DHT22;30019;50.576;8.568;2022-09-16T18:38:38;10.70;99.90
44305;DHT22;30019;50.576;8.568;2022-09-16T18:41:15;10.70;99.90
44305;DHT22;30019;50.576;8.568;2022-09-16T18:43:42;10.60;99.90
44305;DHT22;30019;50.576;8.568;2022-09-16T18:46:11;10.60;99.90